Time;durP1;ratioP1;P1;durP2;ratioP2;P2;SDS_P1;SDS_P2;PMS_P1;PMS_P2;Temp;Humidity;BMP_temperature;BMP_pressure;BME280_temperature;BME280_humidity;BME280_pressure;Samples;Min_cycle;Max_cycle;Signal;HPM_P1;HPM_P2
2022/03/15 00:01:39;;;;;;;14.25;2.40;;;;;;;7.35;93.25;99831.34;6080463;23;20499;-87
2022/03/15 00:13:06;;;;;;;8.23;2.22;;;;;;;7.71;93.63;99893.94;6154686;23;20079;-87
2022/03/15 00:16:02;;;;;;;9.27;2.50;;;;;;;7.14;93.80;99811.63;6206102;23;20013;-89
2022/03/15 00:18:41;;;;;;;10.23;2.28;;;;;;;7.32;93.92;99821.22;6183007;23;20016;-89
2022/03/15 00:21:31;;;;;;;7.80;2.72;;;;;;;7.32;94.10;99837.69;6211283;23;20463;-90
2022/03/15 00:24:00;;;;;;;11.32;1.80;;;;;;;7.38;94.32;99842.31;6179017;23;20066;-85
2022/03/15 00:26:32;;;;;;;13.88;2.38;;;;;;;7.47;94.51;99834.53;6197759;23;20024;-88
2022/03/15 00:29:09;;;;;;;7.40;2.13;;;;;;;7.52;94.53;99847.94;6185192;23;20082;-87
2022/03/15 00:31:39;;;;;;;10.50;2.33;;;;;;;7.45;94.81;99832.06;6170241;23;20018;-86
2022/03/15 00:34:06;;;;;;;7.57;1.80;;;;;;;7.56;94.46;99844.03;6197415;23;20007;-88
2022/03/15 00:36:35;;;;;;;5.45;1.75;;;;;;;7.68;94.69;99873.34;6169226;23;20355;-87
2022/03/15 00:39:04;;;;;;;6.43;1.90;;;;;;;7.50;94.90;99844.66;6221857;23;20012;-88
2022/03/15 00:41:31;;;;;;;12.75;2.50;;;;;;;7.15;95.43;99795.00;6196937;23;20012;-87
2022/03/15 00:43:58;;;;;;;10.57;2.53;;;;;;;7.27;95.28;99840.78;6170892;23;20023;-86
2022/03/15 00:46:24;;;;;;;9.98;2.03;;;;;;;7.27;95.96;99846.00;6171925;23;20009;-89
2022/03/15 00:48:58;;;;;;;6.88;1.90;;;;;;;7.14;96.11;99815.06;6198682;23;20021;-86
2022/03/15 00:51:24;;;;;;;7.60;1.80;;;;;;;7.24;96.44;99825.41;6173815;23;20047;-88
2022/03/15 00:53:50;;;;;;;5.85;2.10;;;;;;;7.13;96.61;99825.66;6177542;23;20019;-89
2022/03/15 00:56:19;;;;;;;9.02;2.35;;;;;;;7.41;96.47;99862.91;6177890;23;20016;-88
2022/03/15 00:58:45;;;;;;;12.27;2.40;;;;;;;7.36;96.27;99854.69;6183236;23;20095;-89
2022/03/15 01:01:10;;;;;;;7.63;2.00;;;;;;;7.35;96.23;99873.16;6192903;23;20024;-88
2022/03/15 01:03:36;;;;;;;7.35;1.83;;;;;;;7.19;97.53;99874.66;6210430;23;20043;-86
2022/03/15 01:06:02;;;;;;;12.77;2.15;;;;;;;7.10;97.87;99880.81;6185192;23;20347;-88
2022/03/15 01:08:28;;;;;;;9.07;1.80;;;;;;;7.08;97.74;99880.13;6182753;23;20020;-87
2022/03/15 01:11:06;;;;;;;13.55;2.00;;;;;;;6.98;97.96;99875.00;6226417;23;20024;-85
2022/03/15 01:13:32;;;;;;;5.07;1.98;;;;;;;6.84;98.78;99850.22;6174261;23;20035;-85
2022/03/15 01:16:00;;;;;;;7.35;2.03;;;;;;;6.71;98.84;99845.38;6197427;23;20077;-87
2022/03/15 01:18:30;;;;;;;9.90;2.10;;;;;;;6.88;98.92;99864.63;6196746;23;20343;-87
2022/03/15 01:21:02;;;;;;;8.52;2.67;;;;;;;6.68;99.41;99840.47;6197615;23;20028;-87
2022/03/15 01:23:53;;;;;;;8.43;2.30;;;;;;;6.74;99.20;99850.31;6221372;23;20095;-88
2022/03/15 01:26:24;;;;;;;15.77;2.78;;;;;;;6.64;99.16;99834.72;6222018;23;20015;-87
2022/03/15 01:29:11;;;;;;;9.13;3.05;;;;;;;6.54;99.41;99850.44;6188831;23;20020;-88
2022/03/15 01:31:37;;;;;;;5.57;1.83;;;;;;;6.40;100.00;99843.94;6168683;23;20020;-87
2022/03/15 01:34:04;;;;;;;13.20;2.63;;;;;;;6.45;100.00;99866.16;6193495;23;20021;-87
2022/03/15 01:43:15;;;;;;;11.75;3.08;;;;;;;6.02;100.00;99848.41;6219613;23;20038;-87
2022/03/15 01:45:41;;;;;;;9.68;2.38;;;;;;;6.05;100.00;99861.16;6222506;23;20462;-87
2022/03/15 01:48:25;;;;;;;7.10;2.38;;;;;;;5.94;100.00;99843.09;6198356;23;20030;-85
2022/03/15 01:50:52;;;;;;;4.22;2.00;;;;;;;5.99;100.00;99866.94;6220461;23;20095;-86
2022/03/15 01:53:19;;;;;;;8.63;2.28;;;;;;;5.61;100.00;99814.84;6193583;23;20024;-86
2022/03/15 01:56:05;;;;;;;7.72;2.30;;;;;;;5.84;100.00;99853.56;6195926;23;20913;-86
2022/03/15 01:58:31;;;;;;;9.68;3.10;;;;;;;5.76;100.00;99851.66;6169292;23;20446;-87
2022/03/15 02:00:58;;;;;;;11.90;2.83;;;;;;;5.47;100.00;99816.09;6192116;23;20012;-88
2022/03/15 02:03:24;;;;;;;9.65;2.17;;;;;;;5.49;100.00;99837.63;6194258;23;20021;-86
2022/03/15 02:05:52;;;;;;;8.20;2.35;;;;;;;5.38;100.00;99822.97;6168302;23;20016;-86
2022/03/15 02:08:43;;;;;;;6.95;1.95;;;;;;;5.41;100.00;99811.47;6198623;23;20063;-86
2022/03/15 02:11:13;;;;;;;6.15;2.22;;;;;;;5.47;100.00;99826.53;6217963;23;20032;-88
2022/03/15 02:13:40;;;;;;;6.47;2.00;;;;;;;5.36;100.00;99814.50;6223008;23;20016;-88
2022/03/15 02:16:06;;;;;;;10.77;2.55;;;;;;;5.48;100.00;99827.34;6173437;23;20021;-89
2022/03/15 02:18:50;;;;;;;7.30;2.38;;;;;;;5.46;100.00;99824.88;6201880;23;20027;-89
2022/03/15 02:21:16;;;;;;;10.82;1.73;;;;;;;5.48;100.00;99830.75;6197820;23;20020;-87
2022/03/15 02:23:42;;;;;;;12.68;3.88;;;;;;;5.36;100.00;99813.69;6170841;23;20028;-86
2022/03/15 02:26:28;;;;;;;7.75;2.20;;;;;;;5.17;100.00;99784.13;6202459;23;20013;-88
2022/03/15 02:28:57;;;;;;;8.73;1.98;;;;;;;5.46;100.00;99819.66;6199850;23;20450;-88
2022/03/15 02:31:24;;;;;;;11.60;2.20;;;;;;;5.38;100.00;99796.94;6198481;23;20040;-87
2022/03/15 02:34:08;;;;;;;10.02;2.55;;;;;;;5.37;100.00;99792.69;6201205;23;20043;-87
2022/03/15 02:36:55;;;;;;;6.35;2.22;;;;;;;5.44;100.00;99800.78;6198806;23;20347;-88
2022/03/15 02:39:22;;;;;;;8.10;2.20;;;;;;;5.40;100.00;99800.25;6225221;23;20039;-86
2022/03/15 02:41:59;;;;;;;5.57;1.90;;;;;;;5.57;100.00;99803.88;6199715;23;20364;-87
2022/03/15 02:44:26;;;;;;;10.00;2.28;;;;;;;5.61;100.00;99801.81;6198357;23;20020;-88
2022/03/15 02:47:20;;;;;;;8.10;2.10;;;;;;;5.66;100.00;99785.75;6223342;23;20438;-88
2022/03/15 02:50:06;;;;;;;9.65;2.42;;;;;;;5.58;100.00;99766.47;6196520;23;20012;-88
2022/03/15 02:52:37;;;;;;;10.80;2.05;;;;;;;5.76;100.00;99794.34;6195869;23;20091;-88
2022/03/15 02:55:18;;;;;;;15.43;5.05;;;;;;;5.62;100.00;99781.78;6124330;23;20034;-88
2022/03/15 02:57:45;;;;;;;7.20;1.85;;;;;;;5.75;100.00;99786.66;6194735;23;20017;-88
2022/03/15 03:00:28;;;;;;;7.68;2.65;;;;;;;5.83;100.00;99805.81;6199001;23;20087;-88
2022/03/15 03:03:15;;;;;;;5.28;1.85;;;;;;;5.78;100.00;99802.00;6198509;23;20022;-89
2022/03/15 03:05:42;;;;;;;5.22;1.75;;;;;;;5.62;100.00;99797.41;6171772;23;20016;-89
2022/03/15 03:08:10;;;;;;;7.68;1.85;;;;;;;5.32;100.00;99779.28;6153238;23;20016;-87
2022/03/15 03:10:36;;;;;;;8.88;2.15;;;;;;;5.58;100.00;99792.50;6192308;23;20021;-88
2022/03/15 03:13:04;;;;;;;5.45;2.15;;;;;;;5.40;100.00;99763.81;6171469;23;20020;-89
2022/03/15 03:15:32;;;;;;;8.60;1.92;;;;;;;5.61;100.00;99795.78;6193884;23;20016;-86
2022/03/15 03:18:18;;;;;;;6.88;2.63;;;;;;;5.60;100.00;99799.34;6200156;23;20075;-89
2022/03/15 03:20:47;;;;;;;8.90;1.80;;;;;;;5.37;100.00;99732.81;6189808;23;20012;-90
2022/03/15 03:23:15;;;;;;;4.22;1.63;;;;;;;5.68;100.00;99781.22;6197095;23;20095;-90
2022/03/15 03:26:04;;;;;;;7.72;1.90;;;;;;;5.77;100.00;99777.75;6202318;23;20016;-90
2022/03/15 03:28:37;;;;;;;11.20;2.38;;;;;;;5.66;100.00;99757.09;6203705;23;20023;-88
2022/03/15 03:31:12;;;;;;;7.78;2.33;;;;;;;5.69;100.00;99749.81;6181344;23;20021;-92
2022/03/15 03:33:38;;;;;;;10.40;2.03;;;;;;;5.82;100.00;99767.72;6180015;23;20043;-90
2022/03/15 03:36:10;;;;;;;9.60;2.63;;;;;;;5.81;100.00;99776.50;6182134;23;20017;-90
2022/03/15 03:38:55;;;;;;;3.85;1.70;;;;;;;5.53;100.00;99753.06;6207614;23;20043;-87
2022/03/15 03:41:25;;;;;;;6.47;1.80;;;;;;;5.33;100.00;99746.28;6204011;23;20035;-88
2022/03/15 03:43:53;;;;;;;4.75;2.30;;;;;;;5.26;100.00;99751.25;6228763;23;20091;-86
2022/03/15 03:46:21;;;;;;;14.98;2.72;;;;;;;4.94;100.00;99732.44;6176175;23;20017;-89
2022/03/15 03:49:08;;;;;;;9.25;1.58;;;;;;;4.99;100.00;99763.22;6204706;23;20019;-87
2022/03/15 03:51:34;;;;;;;7.85;1.85;;;;;;;4.80;100.00;99745.88;6175048;23;20031;-86
2022/03/15 03:54:20;;;;;;;5.78;1.92;;;;;;;4.68;100.00;99727.81;6225448;23;20137;-90
2022/03/15 03:57:06;;;;;;;7.30;1.75;;;;;;;5.02;100.00;99775.13;6204875;23;20017;-91
2022/03/15 03:59:43;;;;;;;11.98;1.77;;;;;;;4.93;100.00;99762.00;6177136;23;20079;-90
2022/03/15 04:02:09;;;;;;;7.65;1.80;;;;;;;4.96;100.00;99774.72;6176801;23;20016;-88
2022/03/15 04:04:39;;;;;;;5.25;1.83;;;;;;;4.76;100.00;99758.31;6203713;23;20011;-88
2022/03/15 04:07:16;;;;;;;7.10;1.65;;;;;;;4.59;100.00;99744.25;6194227;23;20016;-90
2022/03/15 04:09:43;;;;;;;5.82;1.77;;;;;;;4.28;100.00;99721.00;6174761;23;20022;-89
2022/03/15 04:12:29;;;;;;;8.82;1.67;;;;;;;4.42;100.00;99749.19;6203681;23;20518;-88
2022/03/15 04:15:04;;;;;;;9.35;2.45;;;;;;;4.59;100.00;99767.66;6198733;23;20020;-87
2022/03/15 04:17:51;;;;;;;10.20;2.13;;;;;;;4.71;100.00;99766.53;6198726;23;20017;-88
2022/03/15 04:20:17;;;;;;;8.45;2.15;;;;;;;4.77;100.00;99751.34;6196966;23;20013;-88
2022/03/15 04:22:48;;;;;;;16.33;2.45;;;;;;;4.92;100.00;99760.38;6196151;23;20034;-87
2022/03/15 04:25:16;;;;;;;9.52;2.47;;;;;;;5.13;100.00;99767.97;6198434;23;20392;-91
2022/03/15 04:27:56;;;;;;;7.13;1.95;;;;;;;5.02;100.00;99759.50;6199232;23;20024;-89
2022/03/15 04:30:38;;;;;;;10.43;2.83;;;;;;;4.67;100.00;99726.16;6199090;23;20024;-88
2022/03/15 04:33:22;;;;;;;9.07;2.72;;;;;;;4.71;100.00;99752.72;6200977;23;20023;-89
2022/03/15 04:36:09;;;;;;;12.73;2.67;;;;;;;4.56;100.00;99760.94;6202907;23;20063;-89
2022/03/15 04:38:56;;;;;;;14.35;2.90;;;;;;;4.26;100.00;99728.94;6207609;23;20008;-91
2022/03/15 04:41:22;;;;;;;12.57;2.47;;;;;;;4.37;100.00;99755.72;6169466;23;20023;-90
2022/03/15 04:44:07;;;;;;;8.13;2.45;;;;;;;4.32;100.00;99743.13;6199365;23;20024;-92
2022/03/15 04:46:58;;;;;;;9.27;2.38;;;;;;;4.33;100.00;99723.19;6230807;23;20064;-90
2022/03/15 04:49:34;;;;;;;12.95;2.60;;;;;;;4.54;100.00;99743.84;6211024;23;20005;-90
2022/03/15 04:52:23;;;;;;;5.97;2.33;;;;;;;4.76;100.00;99749.72;6219513;23;20016;-90
2022/03/15 04:55:09;;;;;;;6.72;1.75;;;;;;;4.71;100.00;99709.31;6218483;23;20005;-91
2022/03/15 04:57:56;;;;;;;11.15;2.53;;;;;;;5.06;100.00;99727.03;6219573;23;20040;-89
2022/03/15 05:00:26;;;;;;;9.20;2.40;;;;;;;5.12;100.00;99744.72;6216954;23;20024;-89
2022/03/15 05:02:52;;;;;;;9.20;3.83;;;;;;;4.94;100.00;99742.84;6185473;23;20016;-89
2022/03/15 05:05:37;;;;;;;5.88;3.10;;;;;;;4.79;100.00;99734.63;6168450;23;20035;-88
2022/03/15 05:08:23;;;;;;;11.63;3.10;;;;;;;4.49;100.00;99707.03;6166311;23;20018;-87
2022/03/15 05:11:11;;;;;;;9.48;2.88;;;;;;;4.43;100.00;99716.22;6166545;23;20021;-90
2022/03/15 05:13:46;;;;;;;8.65;2.85;;;;;;;4.41;100.00;99720.72;6142780;23;20028;-89
2022/03/15 05:16:21;;;;;;;7.88;2.10;;;;;;;4.35;100.00;99719.50;6142479;23;20018;-90
2022/03/15 05:19:10;;;;;;;12.18;2.60;;;;;;;4.47;100.00;99730.56;6164017;23;20575;-88
2022/03/15 05:21:54;;;;;;;10.23;2.30;;;;;;;4.74;100.00;99723.84;6158927;23;20061;-86
2022/03/15 05:24:44;;;;;;;12.55;2.00;;;;;;;4.79;100.00;99681.81;6157765;23;20048;-88
2022/03/15 05:27:16;;;;;;;9.50;3.17;;;;;;;5.02;100.00;99692.69;6138366;23;20021;-88
2022/03/15 05:30:12;;;;;;;11.52;2.33;;;;;;;5.23;100.00;99694.25;6123983;23;20072;-89
2022/03/15 05:32:42;;;;;;;11.88;2.38;;;;;;;5.39;100.00;99714.47;6138006;23;20061;-91
2022/03/15 05:35:17;;;;;;;8.20;2.35;;;;;;;4.97;100.00;99656.69;6154551;23;20021;-83
2022/03/15 05:38:09;;;;;;;8.63;1.85;;;;;;;5.47;100.00;99717.16;6162527;23;20052;-89
2022/03/15 05:40:36;;;;;;;6.40;1.95;;;;;;;5.50;100.00;99711.69;6154937;23;20333;-89
2022/03/15 05:43:02;;;;;;;6.40;1.63;;;;;;;5.32;100.00;99676.97;6179909;23;20040;-89
2022/03/15 05:45:31;;;;;;;10.52;2.42;;;;;;;5.61;100.00;99707.22;6195332;23;20012;-87
2022/03/15 05:48:07;;;;;;;12.75;2.25;;;;;;;5.60;100.00;99700.38;6183980;23;20025;-86
2022/03/15 05:50:55;;;;;;;9.57;1.58;;;;;;;5.57;100.00;99702.31;6198427;23;20020;-88
2022/03/15 05:53:42;;;;;;;7.07;1.95;;;;;;;5.60;100.00;99706.44;6111219;23;20038;-88
2022/03/15 05:56:07;;;;;;;9.65;2.13;;;;;;;5.43;100.00;99700.19;6132588;23;20073;-89
2022/03/15 05:58:53;;;;;;;6.70;2.00;;;;;;;5.12;100.00;99666.66;6090448;23;20014;-87
2022/03/15 06:01:22;;;;;;;7.47;1.52;;;;;;;5.26;100.00;99694.78;6088564;23;20014;-88
2022/03/15 06:04:24;;;;;;;10.52;1.90;;;;;;;5.23;100.00;99687.25;6112055;23;20528;-89
2022/03/15 06:07:09;;;;;;;8.90;1.92;;;;;;;5.26;100.00;99692.19;6107388;23;20061;-90
2022/03/15 06:09:36;;;;;;;13.00;1.92;;;;;;;5.21;100.00;99672.75;6074180;23;20021;-89
2022/03/15 06:12:25;;;;;;;10.45;1.95;;;;;;;5.37;100.00;99688.56;6108584;23;20413;-87
2022/03/15 06:14:59;;;;;;;7.65;1.73;;;;;;;5.28;100.00;99672.03;6106509;23;20458;-87
2022/03/15 06:17:56;;;;;;;7.18;1.80;;;;;;;5.36;100.00;99683.53;6060129;23;20504;-88
2022/03/15 06:20:28;;;;;;;5.30;1.98;;;;;;;5.25;100.00;99671.50;6107768;23;20410;-87
2022/03/15 06:22:55;;;;;;;3.78;1.70;;;;;;;4.95;100.00;99627.41;6105092;23;20026;-88
2022/03/15 06:25:22;;;;;;;5.93;1.88;;;;;;;5.33;100.00;99683.81;6129978;23;20078;-86
2022/03/15 06:27:49;;;;;;;5.70;1.77;;;;;;;5.22;100.00;99666.59;6080421;23;20390;-85
2022/03/15 06:30:36;;;;;;;7.45;1.80;;;;;;;5.43;100.00;99679.38;6131488;23;20046;-87
2022/03/15 06:33:06;;;;;;;7.18;2.08;;;;;;;5.33;100.00;99657.78;6107898;23;20016;-86
2022/03/15 06:35:57;;;;;;;5.05;1.73;;;;;;;5.37;100.00;99653.91;6175666;23;20017;-87
2022/03/15 06:38:24;;;;;;;9.93;2.83;;;;;;;5.66;100.00;99676.34;6120482;23;20013;-87
2022/03/15 06:40:59;;;;;;;6.32;2.35;;;;;;;5.88;100.00;99684.72;6176655;23;20004;-89
2022/03/15 06:43:46;;;;;;;10.63;2.42;;;;;;;5.61;100.00;99639.53;6187099;23;20122;-86
2022/03/15 06:46:14;;;;;;;8.43;2.10;;;;;;;5.77;100.00;99665.72;6172519;23;20017;-87
2022/03/15 06:49:02;;;;;;;5.22;2.08;;;;;;;5.81;100.00;99666.25;6169807;23;20072;-85
2022/03/15 06:51:49;;;;;;;5.43;2.40;;;;;;;5.96;100.00;99685.59;6169853;23;20348;-84
2022/03/15 06:54:35;;;;;;;11.60;2.10;;;;;;;5.97;100.00;99676.03;6181632;23;20025;-89
2022/03/15 06:57:01;;;;;;;5.93;2.50;;;;;;;6.09;100.00;99687.06;6147861;23;20458;-88
2022/03/15 06:59:29;;;;;;;10.73;3.15;;;;;;;6.10;100.00;99681.72;6166562;23;20001;-87
2022/03/15 07:01:59;;;;;;;10.75;2.60;;;;;;;6.25;100.00;99696.81;6172370;23;20022;-84
2022/03/15 07:04:29;;;;;;;5.10;2.22;;;;;;;6.34;100.00;99688.09;6171659;23;20017;-85
2022/03/15 07:07:00;;;;;;;7.78;1.80;;;;;;;6.36;100.00;99669.69;6168633;23;20041;-85
2022/03/15 07:09:26;;;;;;;7.32;1.67;;;;;;;6.37;100.00;99656.50;6172838;23;20013;-84
2022/03/15 07:11:53;;;;;;;9.10;2.95;;;;;;;6.38;100.00;99642.50;6173788;23;20036;-88
2022/03/15 07:14:38;;;;;;;7.18;1.77;;;;;;;6.52;100.00;99648.13;6186174;23;20021;-85
2022/03/15 07:17:05;;;;;;;5.22;1.90;;;;;;;6.61;100.00;99662.06;6168635;23;20024;-83
2022/03/15 07:19:45;;;;;;;9.45;2.22;;;;;;;6.68;100.00;99671.72;6192630;23;20068;-86
2022/03/15 07:22:12;;;;;;;8.23;2.17;;;;;;;6.93;100.00;99678.84;6192478;23;20076;-86
2022/03/15 07:24:58;;;;;;;5.55;1.83;;;;;;;6.96;100.00;99635.00;6172197;23;20024;-85
2022/03/15 07:27:44;;;;;;;13.15;2.53;;;;;;;7.28;100.00;99664.84;6171579;23;20017;-86
2022/03/15 07:30:12;;;;;;;7.35;2.45;;;;;;;7.39;100.00;99657.69;6168630;23;20100;-88
2022/03/15 07:32:49;;;;;;;5.88;1.75;;;;;;;7.46;100.00;99636.97;6169472;23;20459;-86
2022/03/15 07:35:15;;;;;;;8.70;2.22;;;;;;;7.68;100.00;99666.94;6168996;23;20029;-85
2022/03/15 07:37:59;;;;;;;4.97;1.77;;;;;;;7.69;100.00;99668.56;6170775;23;20063;-88
2022/03/15 07:40:27;;;;;;;7.40;2.22;;;;;;;7.89;100.00;99676.13;6177787;23;20001;-84
2022/03/15 07:43:10;;;;;;;6.70;1.80;;;;;;;7.91;100.00;99648.00;6169946;23;20040;-83
2022/03/15 07:45:56;;;;;;;7.13;1.73;;;;;;;8.05;100.00;99654.38;6170408;23;20088;-86
2022/03/15 07:48:41;;;;;;;6.43;1.70;;;;;;;8.30;100.00;99663.06;6171940;23;20017;-83
2022/03/15 07:51:08;;;;;;;7.40;1.65;;;;;;;8.52;100.00;99664.19;6186128;23;20021;-88
2022/03/15 07:53:54;;;;;;;6.63;1.98;;;;;;;8.67;98.45;99674.84;6187660;23;20029;-84
2022/03/15 07:56:21;;;;;;;4.45;2.10;;;;;;;8.81;98.53;99677.72;6135728;23;20021;-86
2022/03/15 07:58:55;;;;;;;10.93;2.00;;;;;;;8.97;98.32;99676.91;6162167;23;20033;-87
2022/03/15 08:01:49;;;;;;;6.18;2.30;;;;;;;8.97;97.96;99680.31;6169233;23;20092;-81
2022/03/15 08:04:16;;;;;;;7.03;2.47;;;;;;;9.10;96.90;99652.78;6187071;23;21052;-85
2022/03/15 08:07:06;;;;;;;9.40;2.17;;;;;;;9.08;97.57;99666.03;6190217;23;20017;-88
2022/03/15 08:09:38;;;;;;;8.70;2.70;;;;;;;9.34;97.81;99648.41;6185005;23;20040;-84
2022/03/15 08:12:06;;;;;;;13.15;2.65;;;;;;;9.76;100.00;99647.19;6158356;23;20069;-82
2022/03/15 08:14:54;;;;;;;9.05;2.35;;;;;;;10.00;96.59;99640.13;6163533;23;20030;-81
2022/03/15 08:17:41;;;;;;;14.48;3.00;;;;;;;10.32;100.00;99655.78;6183498;23;20024;-83
2022/03/15 08:20:32;;;;;;;10.27;2.88;;;;;;;10.62;95.74;99656.72;6188191;23;20107;-87
2022/03/15 08:23:02;;;;;;;9.68;2.65;;;;;;;10.76;93.44;99651.63;6135082;23;20028;-83
2022/03/15 08:25:45;;;;;;;10.32;2.85;;;;;;;10.87;90.90;99651.19;6161445;23;20559;-85
2022/03/15 08:28:32;;;;;;;12.25;3.25;;;;;;;11.13;92.41;99639.41;6154492;23;20027;-80
2022/03/15 08:31:00;;;;;;;12.88;3.05;;;;;;;11.51;93.07;99648.94;6185352;23;20391;-84
2022/03/15 08:33:46;;;;;;;11.57;2.83;;;;;;;11.67;92.74;99640.81;6154865;23;20017;-84
2022/03/15 08:36:35;;;;;;;9.20;2.50;;;;;;;11.81;91.09;99628.63;6163277;23;20029;-83
2022/03/15 08:39:23;;;;;;;8.35;2.90;;;;;;;12.17;92.81;99626.09;6184301;23;20381;-83
2022/03/15 08:41:51;;;;;;;10.73;3.75;;;;;;;12.45;87.87;99622.69;6158986;23;20009;-82
2022/03/15 08:44:20;;;;;;;12.57;4.43;;;;;;;12.36;86.58;99635.97;6185421;23;20009;-83
2022/03/15 08:47:06;;;;;;;8.80;3.47;;;;;;;12.25;87.52;99620.72;6162843;23;20352;-84
2022/03/15 08:49:33;;;;;;;9.38;3.28;;;;;;;12.28;88.54;99623.78;6154448;23;20020;-81
2022/03/15 08:52:08;;;;;;;10.20;3.75;;;;;;;12.28;85.71;99634.31;6185029;23;20009;-82
2022/03/15 08:54:54;;;;;;;12.48;4.03;;;;;;;12.28;85.88;99638.75;6181849;23;20043;-82
2022/03/15 08:57:22;;;;;;;12.05;4.53;;;;;;;12.35;86.77;99629.06;6151174;23;20013;-83
2022/03/15 09:00:26;;;;;;;11.43;3.80;;;;;;;12.17;85.85;99636.63;6185331;23;20013;-83
2022/03/15 09:02:52;;;;;;;6.53;3.90;;;;;;;12.17;88.16;99628.75;6159047;23;20088;-82
2022/03/15 09:05:43;;;;;;;9.57;3.97;;;;;;;12.28;87.58;99618.53;6185194;23;20017;-83
2022/03/15 09:08:29;;;;;;;10.90;3.88;;;;;;;12.31;88.74;99622.56;6188290;23;20032;-83
2022/03/15 09:11:18;;;;;;;8.02;3.88;;;;;;;12.46;86.77;99625.09;6167176;23;20444;-84
2022/03/15 09:13:43;;;;;;;6.93;3.67;;;;;;;12.68;86.39;99622.44;6164601;23;20009;-86
2022/03/15 09:16:10;;;;;;;8.48;3.70;;;;;;;12.69;88.03;99629.31;6185678;23;20020;-85
2022/03/15 09:18:36;;;;;;;11.18;4.38;;;;;;;12.85;87.18;99636.09;6161427;23;20009;-84
2022/03/15 09:21:02;;;;;;;12.05;5.07;;;;;;;12.80;88.95;99630.59;6162432;23;20355;-83
2022/03/15 09:23:28;;;;;;;7.43;4.63;;;;;;;12.92;87.43;99618.47;6160911;23;20012;-84
2022/03/15 09:25:55;;;;;;;11.95;4.82;;;;;;;12.95;87.21;99626.00;6187285;23;20027;-84
2022/03/15 09:28:21;;;;;;;12.25;4.88;;;;;;;13.08;87.06;99629.72;6160709;23;20017;-84
2022/03/15 09:30:48;;;;;;;12.18;5.00;;;;;;;13.38;87.48;99622.31;6161099;23;20067;-84
2022/03/15 09:34:03;;;;;;;14.98;4.90;;;;;;;13.36;87.03;99623.50;6186612;23;20013;-85
2022/03/15 09:36:29;;;;;;;8.20;4.40;;;;;;;13.23;88.30;99598.75;6140462;23;20036;-85
2022/03/15 09:39:01;;;;;;;12.50;5.43;;;;;;;13.35;87.97;99606.06;6184950;23;20115;-85
2022/03/15 09:41:27;;;;;;;11.23;5.03;;;;;;;13.59;89.33;99614.50;6189197;23;20005;-84
2022/03/15 09:44:02;;;;;;;10.82;4.32;;;;;;;13.69;88.00;99607.00;6187384;23;20017;-84
2022/03/15 09:46:29;;;;;;;10.82;4.25;;;;;;;13.87;87.71;99605.59;6138724;23;20017;-87
2022/03/15 09:49:01;;;;;;;14.15;5.00;;;;;;;13.90;87.10;99607.81;6142581;23;20017;-84
2022/03/15 09:51:33;;;;;;;8.80;4.85;;;;;;;14.04;86.31;99598.91;6188265;23;20095;-86
2022/03/15 09:53:59;;;;;;;12.40;5.10;;;;;;;14.26;85.89;99601.31;6191673;23;20021;-87
2022/03/15 09:56:46;;;;;;;9.93;5.22;;;;;;;14.30;86.15;99607.81;6189417;23;20021;-87
2022/03/15 09:59:34;;;;;;;11.07;5.60;;;;;;;14.38;86.98;99615.53;6186250;23;20020;-86
2022/03/15 10:02:21;;;;;;;8.57;5.63;;;;;;;14.52;86.58;99605.75;6167503;23;20023;-86
2022/03/15 10:04:58;;;;;;;8.45;5.07;;;;;;;15.00;86.44;99617.03;6167985;23;20023;-88
2022/03/15 10:07:23;;;;;;;13.07;6.88;;;;;;;14.98;85.99;99593.47;6164391;23;20017;-84
2022/03/15 10:09:52;;;;;;;10.90;6.78;;;;;;;15.11;86.00;99570.59;6187000;23;20024;-84
2022/03/15 10:12:18;;;;;;;12.35;6.13;;;;;;;15.08;85.36;99576.31;6161051;23;20020;-84
2022/03/15 10:14:45;;;;;;;10.80;6.82;;;;;;;15.03;86.65;99599.94;6159992;23;20060;-84
2022/03/15 10:17:14;;;;;;;8.48;6.20;;;;;;;15.00;86.52;99590.59;6185752;23;20013;-83
2022/03/15 10:19:54;;;;;;;14.68;7.28;;;;;;;14.92;87.36;99582.91;6186237;23;20023;-83
2022/03/15 10:22:26;;;;;;;13.23;7.78;;;;;;;14.65;87.43;99583.78;6161094;23;20032;-84
2022/03/15 10:25:14;;;;;;;10.55;7.30;;;;;;;14.61;89.15;99579.94;6186566;23;20071;-83
2022/03/15 10:27:40;;;;;;;14.40;7.43;;;;;;;14.71;89.00;99582.97;6135742;23;20028;-84
2022/03/15 10:30:06;;;;;;;13.27;7.43;;;;;;;14.92;89.06;99578.41;6185123;23;20020;-83
2022/03/15 10:32:33;;;;;;;16.08;7.40;;;;;;;14.95;88.01;99567.44;6160005;23;20016;-84
2022/03/15 10:35:08;;;;;;;20.02;7.93;;;;;;;15.24;88.21;99570.53;6160576;23;20064;-83
2022/03/15 10:37:57;;;;;;;13.25;7.88;;;;;;;15.45;88.14;99571.22;6173211;23;20028;-84
2022/03/15 10:40:51;;;;;;;11.20;7.55;;;;;;;15.92;86.11;99554.25;6136169;23;20009;-83
2022/03/15 10:43:24;;;;;;;13.65;8.20;;;;;;;16.02;86.15;99564.34;6109131;23;20029;-84
2022/03/15 10:46:12;;;;;;;16.10;8.05;;;;;;;15.78;86.00;99562.25;6132521;23;20083;-83
2022/03/15 10:49:04;;;;;;;15.43;7.88;;;;;;;15.40;86.53;99563.13;6037691;23;20054;-83
2022/03/15 10:51:51;;;;;;;17.30;8.07;;;;;;;15.42;85.70;99553.16;6037600;23;20043;-83
2022/03/15 10:54:38;;;;;;;15.88;7.65;;;;;;;15.37;85.59;99563.56;6124524;23;20444;-83
2022/03/15 10:57:22;;;;;;;11.02;7.30;;;;;;;15.75;85.70;99544.16;6107589;23;20101;-83
2022/03/15 10:59:52;;;;;;;15.73;8.20;;;;;;;16.09;85.07;99541.25;6126847;23;20033;-83
2022/03/15 11:02:51;;;;;;;13.38;8.10;;;;;;;16.00;84.36;99546.00;6125736;23;20022;-83
2022/03/15 11:05:33;;;;;;;13.30;7.57;;;;;;;15.84;84.68;99553.44;6124119;23;20345;-82
2022/03/15 11:08:22;;;;;;;13.85;8.57;;;;;;;15.57;85.91;99524.56;6120988;23;20022;-82
2022/03/15 11:11:27;;;;;;;12.98;8.02;;;;;;;15.93;85.51;99534.69;6121998;23;20037;-83
2022/03/15 11:14:13;;;;;;;14.82;7.75;;;;;;;16.20;85.03;99534.41;6123312;23;20025;-83
2022/03/15 11:17:06;;;;;;;19.20;7.97;;;;;;;16.58;83.86;99522.81;6121543;23;20025;-84
2022/03/15 11:19:44;;;;;;;12.88;7.90;;;;;;;16.83;82.95;99529.84;6050461;23;20097;-84
2022/03/15 11:22:34;;;;;;;16.17;8.40;;;;;;;17.10;82.31;99522.38;6094588;23;20033;-83
2022/03/15 11:25:12;;;;;;;13.25;7.90;;;;;;;17.23;81.92;99534.63;6093758;23;20033;-83
2022/03/15 11:28:00;;;;;;;14.57;8.35;;;;;;;16.96;82.95;99528.84;6065905;23;20026;-83
2022/03/15 11:30:27;;;;;;;13.07;7.50;;;;;;;16.82;82.03;99513.13;6041610;23;20035;-83
2022/03/15 11:33:14;;;;;;;16.88;7.13;;;;;;;16.75;81.03;99508.94;6064662;23;20383;-82
2022/03/15 11:36:05;;;;;;;14.48;7.68;;;;;;;16.87;81.22;99515.09;6065485;23;20021;-82
2022/03/15 11:39:00;;;;;;;11.45;7.60;;;;;;;16.99;81.45;99518.63;6104122;23;20077;-82
2022/03/15 11:41:26;;;;;;;14.40;7.47;;;;;;;16.79;81.41;99515.41;6124109;23;20385;-83
2022/03/15 11:44:34;;;;;;;12.65;7.15;;;;;;;17.12;80.88;99514.19;6094605;23;20120;-84
2022/03/15 11:47:30;;;;;;;15.77;8.55;;;;;;;17.05;80.23;99516.13;6095509;23;20350;-83
2022/03/15 11:50:15;;;;;;;15.45;7.80;;;;;;;17.25;79.30;99513.19;6047217;23;20058;-82
2022/03/15 11:53:35;;;;;;;13.02;7.95;;;;;;;17.42;78.76;99505.38;6094103;23;20022;-82
2022/03/15 11:56:22;;;;;;;14.40;8.38;;;;;;;17.39;79.12;99506.66;6093453;23;20061;-83
2022/03/15 11:59:11;;;;;;;18.00;8.68;;;;;;;17.13;79.84;99505.19;6002984;23;20108;-82
2022/03/15 12:02:01;;;;;;;12.82;9.00;;;;;;;17.18;78.65;99502.66;5979973;24;20024;-82
2022/03/15 12:04:29;;;;;;;18.25;9.20;;;;;;;17.23;80.50;99502.78;5983212;24;20026;-82
2022/03/15 12:06:59;;;;;;;14.55;8.93;;;;;;;17.41;79.88;99490.50;5985303;24;20522;-83
2022/03/15 12:09:50;;;;;;;14.18;8.65;;;;;;;17.47;78.91;99494.88;5985588;24;20092;-85
2022/03/15 12:12:34;;;;;;;15.90;9.27;;;;;;;17.28;79.73;99475.59;6007407;23;20067;-86
2022/03/15 12:15:22;;;;;;;15.55;9.40;;;;;;;17.26;79.96;99481.09;6007705;23;20024;-81
2022/03/15 12:21:10;;;;;;;17.80;9.73;;;;;;;17.65;79.51;99474.56;6007570;23;20108;-80
2022/03/15 12:23:56;;;;;;;18.02;10.38;;;;;;;17.39;79.01;99463.38;6007510;23;20027;-83
2022/03/15 12:26:26;;;;;;;16.60;10.75;;;;;;;17.62;79.02;99453.81;6008285;23;20015;-82
2022/03/15 12:29:17;;;;;;;19.52;10.95;;;;;;;17.47;79.20;99449.75;6013655;23;20023;-82
2022/03/15 12:31:47;;;;;;;23.08;10.35;;;;;;;17.43;79.43;99445.94;6018120;23;20029;-82
2022/03/15 12:34:35;;;;;;;21.90;10.88;;;;;;;17.25;79.43;99450.31;6089518;23;20075;-81
2022/03/15 12:37:34;;;;;;;16.60;10.20;;;;;;;17.39;79.49;99437.66;6092052;23;20445;-81